Terminal Aerodrome Forecast
Issued by NWS

Home | Current Version | Previous Version | Text Only | Print | Product List | Glossary On
Versions: 1 2 3 4 5 6 7 8 9 10 11 12 13 14
638
FTPA31 PHFO 191736
TAFHMK
TAF
PHMK 191736Z 1918/2018 06009KT P6SM VCSH FEW025 SCT050
     FM192000 04012G20KT P6SM FEW030 SCT045
     FM200500 04009KT P6SM FEW025 SCT045=

USA.gov is the U.S. government's official web portal to all federal, state and local government web resources and services.